Time;durP1;ratioP1;P1;durP2;ratioP2;P2;SDS_P1;SDS_P2;PMS_P1;PMS_P2;Temp;Humidity;BMP_temperature;BMP_pressure;BME280_temperature;BME280_humidity;BME280_pressure;Samples;Min_cycle;Max_cycle;Signal;HPM_P1;HPM_P2
2024/04/01 00:00:20;;;;;;;3.13;1.37;;;;;;;;;;5036653;28;20216;-59
2024/04/01 00:02:46;;;;;;;1.70;1.50;;;;;;;;;;5041122;28;20708;-59
2024/04/01 00:05:13;;;;;;;3.50;1.30;;;;;;;;;;5035115;28;20237;-55
2024/04/01 00:07:41;;;;;;;1.40;1.30;;;;;;;;;;5035375;28;20216;-59
2024/04/01 00:10:09;;;;;;;4.80;1.37;;;;;;;;;;5029420;28;20680;-59
2024/04/01 00:12:35;;;;;;;4.77;1.37;;;;;;;;;;5047535;28;20680;-57
2024/04/01 00:15:02;;;;;;;3.63;1.67;;;;;;;;;;5038859;28;20194;-59
2024/04/01 00:17:28;;;;;;;2.67;1.20;;;;;;;;;;5054205;28;20241;-58
2024/04/01 00:19:55;;;;;;;3.50;1.33;;;;;;;;;;5046878;28;20680;-58
2024/04/01 00:22:21;;;;;;;2.03;1.40;;;;;;;;;;5038018;28;20580;-57
2024/04/01 00:24:49;;;;;;;2.17;1.50;;;;;;;;;;5049667;28;20596;-59
2024/04/01 00:27:15;;;;;;;2.33;1.37;;;;;;;;;;5046442;28;20569;-59
2024/04/01 00:29:42;;;;;;;2.07;1.27;;;;;;;;;;5043903;28;20236;-58
2024/04/01 00:32:08;;;;;;;1.37;1.27;;;;;;;;;;5038217;28;20253;-59
2024/04/01 00:34:36;;;;;;;2.30;1.30;;;;;;;;;;5036938;28;20582;-59
2024/04/01 00:37:02;;;;;;;1.97;1.37;;;;;;;;;;5054370;28;20640;-59
2024/04/01 00:39:29;;;;;;;2.80;1.30;;;;;;;;;;5044757;28;20303;-58
2024/04/01 00:41:55;;;;;;;1.40;1.10;;;;;;;;;;5037017;28;20709;-59
2024/04/01 00:44:22;;;;;;;2.47;1.33;;;;;;;;;;5036804;28;20223;-59
2024/04/01 00:46:48;;;;;;;2.93;1.13;;;;;;;;;;5041939;28;20199;-60
2024/04/01 00:49:16;;;;;;;1.50;1.20;;;;;;;;;;5033958;28;20206;-58
2024/04/01 00:51:42;;;;;;;1.57;1.20;;;;;;;;;;5028059;28;20306;-59
2024/04/01 00:54:09;;;;;;;3.23;2.27;;;;;;;;;;5042048;28;20665;-56
2024/04/01 00:56:35;;;;;;;4.77;2.73;;;;;;;;;;5034386;28;20207;-58
2024/04/01 00:59:02;;;;;;;2.90;1.50;;;;;;;;;;5042155;28;20301;-58
2024/04/01 01:01:28;;;;;;;1.50;1.23;;;;;;;;;;5041877;28;20237;-57
2024/04/01 01:03:55;;;;;;;4.57;2.20;;;;;;;;;;5033986;28;20359;-56
2024/04/01 01:06:22;;;;;;;6.20;1.50;;;;;;;;;;5036550;28;20206;-57
2024/04/01 01:08:50;;;;;;;2.43;1.90;;;;;;;;;;5031298;28;20620;-57
2024/04/01 01:11:16;;;;;;;2.20;1.83;;;;;;;;;;5031662;28;20202;-58
2024/04/01 01:13:43;;;;;;;3.43;1.43;;;;;;;;;;5035481;28;20199;-55
2024/04/01 01:16:09;;;;;;;3.77;1.80;;;;;;;;;;5042218;28;20217;-56
2024/04/01 01:18:36;;;;;;;1.37;1.10;;;;;;;;;;5047160;28;20260;-58
2024/04/01 01:21:03;;;;;;;1.83;1.53;;;;;;;;;;5041506;28;20226;-55
2024/04/01 01:23:30;;;;;;;1.37;1.00;;;;;;;;;;5034580;28;20232;-56
2024/04/01 01:25:56;;;;;;;2.47;1.30;;;;;;;;;;5034338;28;20216;-54
2024/04/01 01:28:23;;;;;;;2.27;1.13;;;;;;;;;;5035214;28;20205;-57
2024/04/01 01:30:49;;;;;;;2.70;1.37;;;;;;;;;;5039368;28;20569;-56
2024/04/01 01:33:16;;;;;;;2.10;1.27;;;;;;;;;;5033675;28;20236;-57
2024/04/01 01:35:44;;;;;;;5.00;1.40;;;;;;;;;;5041434;28;20207;-58
2024/04/01 01:38:12;;;;;;;1.60;1.23;;;;;;;;;;5033400;28;20209;-57
2024/04/01 01:40:39;;;;;;;2.47;1.57;;;;;;;;;;5033090;28;20210;-58
2024/04/01 01:43:06;;;;;;;2.43;1.40;;;;;;;;;;5027031;28;20606;-57
2024/04/01 01:45:32;;;;;;;2.67;1.30;;;;;;;;;;5034977;28;20247;-55
2024/04/01 01:47:59;;;;;;;2.90;1.33;;;;;;;;;;5034483;28;20212;-56
2024/04/01 01:50:25;;;;;;;1.57;1.20;;;;;;;;;;5033088;28;20209;-56
2024/04/01 01:52:52;;;;;;;1.13;1.03;;;;;;;;;;5039068;28;20226;-55
2024/04/01 01:55:18;;;;;;;1.83;1.40;;;;;;;;;;5051611;28;20219;-56
2024/04/01 01:57:46;;;;;;;3.53;1.23;;;;;;;;;;5037681;28;20204;-58
2024/04/01 02:00:13;;;;;;;2.47;1.20;;;;;;;;;;5032873;28;20558;-58
2024/04/01 02:02:40;;;;;;;1.90;1.30;;;;;;;;;;5031672;28;20234;-57
2024/04/01 02:05:06;;;;;;;2.90;1.40;;;;;;;;;;5033017;28;20640;-57
2024/04/01 02:07:33;;;;;;;2.67;1.10;;;;;;;;;;5036208;28;20208;-57
2024/04/01 02:09:59;;;;;;;1.93;1.43;;;;;;;;;;5037290;28;20209;-57
2024/04/01 02:12:27;;;;;;;2.70;1.53;;;;;;;;;;5039499;28;20308;-58
2024/04/01 02:14:53;;;;;;;2.37;1.40;;;;;;;;;;5040628;28;20215;-56
2024/04/01 02:17:20;;;;;;;2.13;1.27;;;;;;;;;;5045305;28;20208;-57
2024/04/01 02:19:46;;;;;;;1.83;1.30;;;;;;;;;;5027820;28;20210;-58
2024/04/01 02:22:13;;;;;;;3.33;1.60;;;;;;;;;;5036084;28;20229;-58
2024/04/01 02:24:39;;;;;;;2.53;1.73;;;;;;;;;;5032702;28;20244;-57
2024/04/01 02:27:07;;;;;;;2.50;1.40;;;;;;;;;;5032098;28;20202;-58
2024/04/01 02:29:33;;;;;;;3.13;1.33;;;;;;;;;;5040600;28;20208;-58
2024/04/01 02:32:00;;;;;;;1.83;1.30;;;;;;;;;;5040222;28;20603;-58
2024/04/01 02:34:26;;;;;;;4.40;1.63;;;;;;;;;;5040123;28;20299;-58
2024/04/01 02:36:54;;;;;;;3.53;1.67;;;;;;;;;;5027011;28;20230;-57
2024/04/01 02:39:20;;;;;;;2.37;1.70;;;;;;;;;;5033701;28;20666;-58
2024/04/01 02:41:47;;;;;;;3.63;1.60;;;;;;;;;;5040547;28;20297;-58
2024/04/01 02:44:13;;;;;;;3.50;1.83;;;;;;;;;;5039935;28;20257;-57
2024/04/01 02:46:40;;;;;;;4.37;1.40;;;;;;;;;;5032267;28;20197;-58
2024/04/01 02:49:07;;;;;;;6.37;1.67;;;;;;;;;;5032053;28;20214;-58
2024/04/01 02:51:34;;;;;;;3.00;1.23;;;;;;;;;;5042429;28;20220;-58
2024/04/01 02:54:00;;;;;;;4.03;1.37;;;;;;;;;;5030727;28;20676;-58
2024/04/01 02:56:27;;;;;;;3.07;1.50;;;;;;;;;;5029618;28;20215;-58
2024/04/01 02:58:53;;;;;;;3.43;1.40;;;;;;;;;;5040594;28;20217;-56
2024/04/01 03:01:20;;;;;;;3.57;1.30;;;;;;;;;;5024261;28;20292;-57
2024/04/01 03:03:46;;;;;;;3.57;1.83;;;;;;;;;;5035901;28;20242;-55
2024/04/01 03:06:13;;;;;;;3.70;1.40;;;;;;;;;;5034313;28;20728;-57
2024/04/01 03:08:40;;;;;;;4.30;1.63;;;;;;;;;;5035289;28;20207;-58
2024/04/01 03:11:07;;;;;;;3.33;1.57;;;;;;;;;;5034826;28;20284;-58
2024/04/01 03:13:33;;;;;;;1.90;1.40;;;;;;;;;;5032896;28;20263;-57
2024/04/01 03:16:00;;;;;;;5.70;2.13;;;;;;;;;;5038545;28;20288;-56
2024/04/01 03:18:26;;;;;;;5.87;1.37;;;;;;;;;;5034620;28;24479;-57
2024/04/01 03:20:53;;;;;;;3.03;1.20;;;;;;;;;;5029510;28;20197;-56
2024/04/01 03:23:19;;;;;;;3.63;1.70;;;;;;;;;;5039230;28;20235;-57
2024/04/01 03:25:47;;;;;;;3.83;1.57;;;;;;;;;;5031253;28;20616;-58
2024/04/01 03:28:13;;;;;;;3.00;1.30;;;;;;;;;;5048422;28;20297;-57
2024/04/01 03:30:40;;;;;;;3.13;2.00;;;;;;;;;;5031065;28;20624;-57
2024/04/01 03:33:06;;;;;;;2.97;1.47;;;;;;;;;;5031007;28;20272;-57
2024/04/01 03:35:34;;;;;;;2.93;1.30;;;;;;;;;;5030629;28;20673;-54
2024/04/01 03:38:01;;;;;;;2.73;1.40;;;;;;;;;;5030388;28;20210;-56
2024/04/01 03:40:28;;;;;;;4.60;1.67;;;;;;;;;;5031516;28;20288;-57
2024/04/01 03:42:55;;;;;;;2.93;1.47;;;;;;;;;;5031277;28;20236;-57
2024/04/01 03:45:22;;;;;;;3.20;1.40;;;;;;;;;;5039763;28;20234;-58
2024/04/01 03:47:48;;;;;;;3.43;1.60;;;;;;;;;;5033465;28;20206;-58
2024/04/01 03:50:15;;;;;;;4.70;1.87;;;;;;;;;;5030796;28;20288;-57
2024/04/01 03:52:41;;;;;;;2.63;1.30;;;;;;;;;;5035239;28;20342;-57
2024/04/01 03:55:09;;;;;;;5.33;2.03;;;;;;;;;;5034573;28;20303;-58
2024/04/01 03:57:35;;;;;;;2.73;1.40;;;;;;;;;;5023878;28;20212;-58
2024/04/01 04:00:03;;;;;;;3.23;1.73;;;;;;;;;;5037700;28;20605;-57
2024/04/01 04:02:29;;;;;;;3.40;1.60;;;;;;;;;;5038839;28;20243;-58
2024/04/01 04:04:56;;;;;;;5.33;1.30;;;;;;;;;;5045566;28;20240;-58
2024/04/01 04:07:22;;;;;;;6.00;1.47;;;;;;;;;;5032152;28;20231;-58
2024/04/01 04:09:51;;;;;;;2.27;1.40;;;;;;;;;;5031426;28;20211;-58
2024/04/01 04:12:17;;;;;;;2.50;1.50;;;;;;;;;;5032254;28;20806;-58
2024/04/01 04:14:44;;;;;;;3.87;2.03;;;;;;;;;;5032050;28;20287;-58
2024/04/01 04:17:10;;;;;;;3.73;1.80;;;;;;;;;;5029889;28;20206;-58
2024/04/01 04:19:37;;;;;;;3.33;1.73;;;;;;;;;;5041364;28;20600;-58
2024/04/01 04:22:04;;;;;;;3.63;1.73;;;;;;;;;;5026316;28;20229;-58
2024/04/01 04:24:31;;;;;;;2.33;1.57;;;;;;;;;;5034471;28;20229;-58
2024/04/01 04:26:57;;;;;;;4.43;1.40;;;;;;;;;;5037797;28;20207;-57
2024/04/01 04:29:24;;;;;;;4.63;1.40;;;;;;;;;;5035476;28;20286;-58
2024/04/01 04:31:50;;;;;;;2.77;1.70;;;;;;;;;;5042227;28;20637;-58
2024/04/01 04:34:17;;;;;;;3.30;1.53;;;;;;;;;;5035295;28;20279;-58
2024/04/01 04:36:43;;;;;;;3.73;1.73;;;;;;;;;;5036726;28;20231;-57
2024/04/01 04:39:19;;;;;;;3.60;1.33;;;;;;;;;;5036101;28;20199;-58
2024/04/01 04:41:46;;;;;;;4.50;1.30;;;;;;;;;;5034341;28;20278;-57
2024/04/01 04:44:13;;;;;;;2.80;1.57;;;;;;;;;;5034263;28;20254;-57
2024/04/01 04:46:39;;;;;;;3.63;1.43;;;;;;;;;;5036591;28;20204;-57
2024/04/01 04:49:06;;;;;;;4.93;1.47;;;;;;;;;;5041461;28;20207;-57
2024/04/01 04:51:33;;;;;;;2.97;2.07;;;;;;;;;;5042059;28;20233;-58
2024/04/01 04:54:00;;;;;;;1.63;1.30;;;;;;;;;;5027435;28;20209;-58
2024/04/01 04:56:27;;;;;;;2.23;1.60;;;;;;;;;;5031355;28;20205;-56
2024/04/01 04:58:54;;;;;;;3.10;1.40;;;;;;;;;;5045295;28;20720;-58
2024/04/01 05:01:20;;;;;;;1.47;1.20;;;;;;;;;;5038869;28;20209;-58
2024/04/01 05:03:48;;;;;;;2.23;1.40;;;;;;;;;;5038746;28;20208;-55
2024/04/01 05:06:14;;;;;;;2.93;1.40;;;;;;;;;;5025650;28;20209;-58
2024/04/01 05:08:41;;;;;;;3.33;1.70;;;;;;;;;;5033421;28;20685;-57
2024/04/01 05:11:07;;;;;;;2.50;1.40;;;;;;;;;;5033567;28;20215;-57
2024/04/01 05:13:34;;;;;;;2.63;1.60;;;;;;;;;;5042580;28;20243;-58
2024/04/01 05:16:00;;;;;;;4.27;1.60;;;;;;;;;;5033316;28;20198;-58
2024/04/01 05:18:27;;;;;;;2.40;1.43;;;;;;;;;;5043011;28;20294;-58
2024/04/01 05:20:53;;;;;;;5.83;1.47;;;;;;;;;;5033979;28;20678;-57
2024/04/01 05:23:21;;;;;;;3.20;1.30;;;;;;;;;;5033074;28;20228;-57
2024/04/01 05:25:47;;;;;;;4.97;1.40;;;;;;;;;;5033925;28;20228;-58
2024/04/01 05:28:14;;;;;;;2.70;1.50;;;;;;;;;;5033819;28;20216;-58
2024/04/01 05:30:40;;;;;;;3.10;1.60;;;;;;;;;;5032610;28;20216;-57
2024/04/01 05:33:07;;;;;;;1.47;1.20;;;;;;;;;;5033583;28;20225;-58
2024/04/01 05:35:33;;;;;;;3.07;1.40;;;;;;;;;;5033556;28;20209;-58
2024/04/01 05:38:01;;;;;;;1.50;1.20;;;;;;;;;;5029164;28;20206;-57
2024/04/01 05:40:27;;;;;;;5.40;1.50;;;;;;;;;;5032999;28;20217;-58
2024/04/01 05:42:54;;;;;;;1.90;1.20;;;;;;;;;;5032902;28;20236;-58
2024/04/01 05:45:20;;;;;;;2.47;1.50;;;;;;;;;;5041345;28;20734;-58
2024/04/01 05:47:48;;;;;;;1.87;1.27;;;;;;;;;;5033002;28;20219;-57
2024/04/01 05:50:17;;;;;;;2.87;1.50;;;;;;;;;;5033930;28;20201;-58
2024/04/01 05:52:45;;;;;;;2.70;1.70;;;;;;;;;;5044661;28;20239;-57
2024/04/01 05:55:11;;;;;;;1.40;1.20;;;;;;;;;;5030627;28;20215;-58
2024/04/01 05:57:38;;;;;;;2.60;1.27;;;;;;;;;;5037717;28;20268;-58
2024/04/01 06:00:04;;;;;;;2.57;1.60;;;;;;;;;;5048953;28;20220;-58
2024/04/01 06:02:31;;;;;;;3.47;1.50;;;;;;;;;;5027312;28;20236;-58
2024/04/01 06:04:58;;;;;;;2.53;1.50;;;;;;;;;;5045596;28;20220;-54
2024/04/01 06:07:25;;;;;;;1.47;1.20;;;;;;;;;;5033941;28;20242;-58
2024/04/01 06:09:51;;;;;;;2.60;1.40;;;;;;;;;;5032904;28;20227;-57
2024/04/01 06:12:18;;;;;;;3.90;1.57;;;;;;;;;;5032265;28;20219;-57
2024/04/01 06:14:44;;;;;;;2.73;1.90;;;;;;;;;;5041655;28;20220;-56
2024/04/01 06:17:11;;;;;;;4.27;1.50;;;;;;;;;;5032584;28;20285;-57
2024/04/01 06:19:38;;;;;;;4.03;1.60;;;;;;;;;;5033502;28;20676;-57
2024/04/01 06:22:05;;;;;;;2.60;1.73;;;;;;;;;;5032397;28;20710;-57
2024/04/01 06:24:31;;;;;;;2.83;1.43;;;;;;;;;;5027305;28;20226;-58
2024/04/01 06:26:58;;;;;;;4.60;1.60;;;;;;;;;;5033570;28;20300;-56
2024/04/01 06:29:24;;;;;;;1.63;1.20;;;;;;;;;;5032031;28;20206;-57
2024/04/01 06:31:51;;;;;;;2.30;1.27;;;;;;;;;;5030089;28;20257;-58
2024/04/01 06:34:17;;;;;;;2.50;1.40;;;;;;;;;;5031814;28;20209;-57
2024/04/01 06:36:45;;;;;;;2.83;1.57;;;;;;;;;;5025517;28;20205;-58
2024/04/01 06:39:11;;;;;;;2.90;1.40;;;;;;;;;;5031868;28;20235;-57
2024/04/01 06:41:39;;;;;;;3.03;1.73;;;;;;;;;;5041213;28;20232;-57
2024/04/01 06:44:05;;;;;;;3.97;1.50;;;;;;;;;;5041111;28;20274;-56
2024/04/01 06:46:32;;;;;;;3.33;1.50;;;;;;;;;;5038377;28;20339;-58
2024/04/01 06:48:58;;;;;;;2.77;1.40;;;;;;;;;;5010784;28;20235;-58
2024/04/01 06:51:25;;;;;;;1.37;1.27;;;;;;;;;;5020704;28;20211;-58
2024/04/01 06:53:51;;;;;;;2.27;1.20;;;;;;;;;;5022396;28;20220;-57
2024/04/01 06:56:19;;;;;;;2.67;1.30;;;;;;;;;;5025369;28;20235;-58
2024/04/01 06:58:45;;;;;;;2.23;1.10;;;;;;;;;;5024532;28;20202;-56
2024/04/01 07:01:13;;;;;;;1.60;1.50;;;;;;;;;;5022835;28;20296;-62
2024/04/01 07:03:39;;;;;;;1.57;1.20;;;;;;;;;;5005435;28;20719;-59
2024/04/01 07:06:06;;;;;;;1.33;1.10;;;;;;;;;;5028814;28;20314;-68
2024/04/01 07:08:32;;;;;;;1.43;1.00;;;;;;;;;;5032645;28;20668;-59
2024/04/01 07:10:59;;;;;;;1.10;1.00;;;;;;;;;;5038507;28;20201;-60
2024/04/01 07:13:25;;;;;;;1.20;1.10;;;;;;;;;;5031819;28;20324;-60
2024/04/01 07:15:53;;;;;;;1.20;1.10;;;;;;;;;;5037786;28;20284;-60
2024/04/01 07:18:19;;;;;;;1.10;1.00;;;;;;;;;;5033324;28;20221;-60
2024/04/01 07:20:47;;;;;;;1.67;1.57;;;;;;;;;;5029439;28;20201;-59
2024/04/01 07:23:13;;;;;;;0.90;0.90;;;;;;;;;;5032226;28;20409;-59
2024/04/01 07:25:40;;;;;;;1.20;1.10;;;;;;;;;;5040486;28;20229;-60
2024/04/01 07:28:06;;;;;;;1.73;1.00;;;;;;;;;;5036155;28;20229;-59
2024/04/01 07:30:33;;;;;;;2.43;1.10;;;;;;;;;;5047405;28;20711;-61
2024/04/01 07:32:59;;;;;;;2.53;1.20;;;;;;;;;;5032102;28;20245;-59
2024/04/01 07:35:26;;;;;;;4.83;1.50;;;;;;;;;;5033766;28;20200;-58
2024/04/01 07:37:53;;;;;;;6.37;1.27;;;;;;;;;;5033942;28;20210;-59
2024/04/01 07:40:20;;;;;;;1.87;1.40;;;;;;;;;;5035264;28;20577;-59
2024/04/01 07:42:46;;;;;;;3.97;1.37;;;;;;;;;;5040183;28;20237;-58
2024/04/01 07:45:13;;;;;;;1.20;1.10;;;;;;;;;;5034399;28;20226;-59
2024/04/01 07:47:40;;;;;;;2.53;1.60;;;;;;;;;;5030828;28;20240;-59
2024/04/01 07:50:07;;;;;;;1.80;1.00;;;;;;;;;;5028618;28;20201;-59
2024/04/01 07:52:33;;;;;;;4.20;1.80;;;;;;;;;;5030214;28;20233;-58
2024/04/01 07:55:00;;;;;;;2.13;1.20;;;;;;;;;;5032874;28;20803;-58
2024/04/01 07:57:30;;;;;;;4.10;1.10;;;;;;;;;;5029288;28;20206;-61
2024/04/01 07:59:57;;;;;;;2.40;1.10;;;;;;;;;;5029827;28;20670;-59
2024/04/01 08:02:23;;;;;;;1.37;1.10;;;;;;;;;;5023060;28;20239;-58
2024/04/01 08:04:50;;;;;;;1.77;1.07;;;;;;;;;;5026006;28;20658;-58
2024/04/01 08:07:16;;;;;;;3.13;1.27;;;;;;;;;;5031014;28;20203;-58
2024/04/01 08:09:43;;;;;;;2.73;1.00;;;;;;;;;;5003363;28;20198;-58
2024/04/01 08:12:10;;;;;;;1.10;1.00;;;;;;;;;;5018925;28;20223;-59
2024/04/01 08:14:37;;;;;;;1.00;1.00;;;;;;;;;;5032309;28;20204;-58
2024/04/01 08:17:03;;;;;;;2.00;1.33;;;;;;;;;;5031362;28;20264;-58
2024/04/01 08:19:30;;;;;;;1.60;1.43;;;;;;;;;;5032879;28;20732;-59
2024/04/01 08:21:57;;;;;;;2.77;2.13;;;;;;;;;;5034457;28;20233;-57
2024/04/01 08:24:24;;;;;;;1.40;1.30;;;;;;;;;;5033318;28;20913;-58
2024/04/01 08:26:50;;;;;;;1.00;1.00;;;;;;;;;;5029112;28;20203;-59
2024/04/01 08:29:17;;;;;;;1.30;1.20;;;;;;;;;;5029894;28;20210;-58
2024/04/01 08:31:43;;;;;;;1.10;1.00;;;;;;;;;;5020813;28;20233;-58
2024/04/01 08:34:10;;;;;;;1.20;1.10;;;;;;;;;;5028712;28;20294;-60
2024/04/01 08:36:36;;;;;;;1.40;1.30;;;;;;;;;;5031465;28;20508;-59
2024/04/01 08:39:04;;;;;;;1.10;1.10;;;;;;;;;;5033003;28;20194;-57
2024/04/01 08:41:30;;;;;;;1.00;1.00;;;;;;;;;;5025288;28;20294;-59
2024/04/01 08:43:57;;;;;;;1.17;1.10;;;;;;;;;;5028991;28;20289;-59
2024/04/01 08:46:23;;;;;;;1.50;1.40;;;;;;;;;;5030887;28;20222;-59
2024/04/01 08:48:50;;;;;;;1.10;1.10;;;;;;;;;;5032825;28;20217;-59
2024/04/01 08:51:16;;;;;;;1.20;1.20;;;;;;;;;;5033113;28;20221;-59
2024/04/01 08:53:43;;;;;;;1.63;1.10;;;;;;;;;;5032656;28;20202;-64
2024/04/01 08:56:10;;;;;;;1.00;1.00;;;;;;;;;;5032332;28;20202;-60
2024/04/01 08:58:37;;;;;;;1.00;1.00;;;;;;;;;;5038455;28;20205;-60
2024/04/01 09:01:03;;;;;;;1.10;1.00;;;;;;;;;;5034564;28;20304;-60
2024/04/01 09:03:30;;;;;;;1.30;1.20;;;;;;;;;;5024926;28;20268;-60
2024/04/01 09:05:57;;;;;;;1.13;1.13;;;;;;;;;;5029565;28;20346;-61
2024/04/01 09:08:24;;;;;;;1.10;1.10;;;;;;;;;;5034104;28;20220;-60
2024/04/01 09:10:51;;;;;;;1.20;1.10;;;;;;;;;;5031222;28;20206;-59
2024/04/01 09:13:18;;;;;;;1.00;1.00;;;;;;;;;;5028509;28;20332;-60
2024/04/01 09:15:44;;;;;;;2.30;1.10;;;;;;;;;;5035591;28;20662;-60
2024/04/01 09:18:11;;;;;;;1.93;1.20;;;;;;;;;;5036466;28;20304;-60
2024/04/01 09:20:38;;;;;;;1.17;1.10;;;;;;;;;;5033630;28;20217;-60
2024/04/01 09:23:05;;;;;;;1.33;1.17;;;;;;;;;;5030289;28;20691;-60
2024/04/01 09:25:31;;;;;;;1.10;1.10;;;;;;;;;;5041742;28;20225;-61
2024/04/01 09:27:58;;;;;;;1.13;1.13;;;;;;;;;;5038488;28;20210;-60
2024/04/01 09:30:24;;;;;;;1.23;1.10;;;;;;;;;;5029205;28;20213;-60
2024/04/01 09:32:51;;;;;;;1.00;1.00;;;;;;;;;;5025293;28;20226;-61
2024/04/01 09:35:17;;;;;;;1.20;1.10;;;;;;;;;;5039286;28;20201;-60
2024/04/01 09:37:44;;;;;;;1.20;1.10;;;;;;;;;;5034890;28;20576;-60
2024/04/01 09:40:11;;;;;;;1.00;1.00;;;;;;;;;;5026066;28;20217;-60
2024/04/01 09:42:38;;;;;;;1.13;1.10;;;;;;;;;;5021346;28;20232;-60
2024/04/01 09:45:07;;;;;;;1.30;1.20;;;;;;;;;;5024721;28;20225;-59
2024/04/01 09:47:37;;;;;;;1.30;1.30;;;;;;;;;;5026276;28;20292;-61
2024/04/01 09:50:03;;;;;;;1.00;1.00;;;;;;;;;;5020346;28;20656;-60
2024/04/01 09:52:30;;;;;;;1.20;1.10;;;;;;;;;;5024167;28;20300;-60
2024/04/01 09:54:56;;;;;;;1.30;1.20;;;;;;;;;;5029875;28;20205;-60
2024/04/01 09:57:23;;;;;;;1.43;1.33;;;;;;;;;;5026787;28;20203;-60
2024/04/01 09:59:50;;;;;;;1.20;1.10;;;;;;;;;;5031975;28;20607;-61
2024/04/01 10:02:17;;;;;;;1.10;1.10;;;;;;;;;;5033987;28;20319;-61
2024/04/01 10:04:43;;;;;;;1.00;1.00;;;;;;;;;;5034087;28;20214;-60
2024/04/01 10:07:10;;;;;;;1.10;1.10;;;;;;;;;;5026758;28;20214;-60
2024/04/01 10:09:36;;;;;;;1.13;1.13;;;;;;;;;;5029193;28;25566;-61
2024/04/01 10:12:04;;;;;;;1.10;1.10;;;;;;;;;;5038937;28;20226;-60
2024/04/01 10:14:30;;;;;;;1.03;1.03;;;;;;;;;;5030207;28;20207;-60
2024/04/01 10:16:57;;;;;;;1.30;1.20;;;;;;;;;;5031194;28;20255;-61
2024/04/01 10:19:23;;;;;;;1.30;1.10;;;;;;;;;;5029072;28;20881;-61
2024/04/01 10:21:50;;;;;;;1.10;1.10;;;;;;;;;;5028470;28;20227;-62
2024/04/01 10:24:16;;;;;;;0.90;0.90;;;;;;;;;;5040472;28;20593;-62
2024/04/01 10:26:43;;;;;;;0.90;0.90;;;;;;;;;;5037661;28;20238;-62
2024/04/01 10:29:10;;;;;;;1.00;1.00;;;;;;;;;;5041269;28;20207;-62
2024/04/01 10:31:37;;;;;;;1.10;1.10;;;;;;;;;;5030717;28;20243;-62
2024/04/01 10:34:04;;;;;;;1.10;1.10;;;;;;;;;;5031238;28;20239;-62
2024/04/01 10:36:31;;;;;;;1.03;1.03;;;;;;;;;;5030283;28;20245;-62
2024/04/01 10:38:57;;;;;;;1.17;1.17;;;;;;;;;;5025084;28;20570;-60
2024/04/01 10:41:25;;;;;;;1.00;1.00;;;;;;;;;;5034744;28;20227;-61
2024/04/01 10:43:52;;;;;;;1.10;1.10;;;;;;;;;;5046684;28;20250;-61
2024/04/01 10:46:18;;;;;;;1.20;1.10;;;;;;;;;;5037926;28;20635;-61
2024/04/01 10:48:46;;;;;;;1.00;1.00;;;;;;;;;;5029847;28;20200;-61
2024/04/01 10:51:12;;;;;;;1.20;1.20;;;;;;;;;;5033896;28;20211;-60
2024/04/01 10:53:39;;;;;;;1.20;1.20;;;;;;;;;;5040911;28;20223;-61
2024/04/01 10:56:05;;;;;;;1.00;1.00;;;;;;;;;;5037602;28;20204;-62
2024/04/01 10:58:33;;;;;;;0.90;0.90;;;;;;;;;;5030766;28;20232;-62
2024/04/01 11:00:59;;;;;;;1.10;1.10;;;;;;;;;;5031828;28;20692;-62
2024/04/01 11:03:27;;;;;;;1.10;1.10;;;;;;;;;;5026235;28;20228;-62
2024/04/01 11:05:53;;;;;;;1.10;1.10;;;;;;;;;;5035522;28;20233;-61
2024/04/01 11:08:20;;;;;;;1.20;1.20;;;;;;;;;;5036875;28;20509;-61
2024/04/01 11:10:46;;;;;;;1.23;1.23;;;;;;;;;;5032727;28;20209;-62
2024/04/01 11:13:13;;;;;;;1.00;1.00;;;;;;;;;;5032535;28;20307;-62
2024/04/01 11:15:39;;;;;;;1.10;1.10;;;;;;;;;;5040641;28;20291;-60
2024/04/01 11:18:07;;;;;;;1.27;1.20;;;;;;;;;;5030477;28;20213;-61
2024/04/01 11:20:33;;;;;;;1.00;1.00;;;;;;;;;;5033914;28;20615;-60
2024/04/01 11:23:00;;;;;;;1.27;1.20;;;;;;;;;;5034144;28;20256;-61
2024/04/01 11:25:26;;;;;;;1.20;1.20;;;;;;;;;;5035407;28;20239;-61
2024/04/01 11:27:53;;;;;;;1.00;1.00;;;;;;;;;;5034501;28;20664;-60
2024/04/01 11:30:19;;;;;;;1.37;1.07;;;;;;;;;;5024015;28;20236;-61
2024/04/01 11:32:46;;;;;;;0.90;0.90;;;;;;;;;;5032124;28;20697;-60
2024/04/01 11:35:13;;;;;;;1.00;1.00;;;;;;;;;;5030434;28;20230;-60
2024/04/01 11:37:40;;;;;;;1.10;1.10;;;;;;;;;;5033881;28;20238;-60
2024/04/01 11:40:06;;;;;;;1.23;1.20;;;;;;;;;;5027760;28;20706;-60
2024/04/01 11:42:34;;;;;;;1.00;1.00;;;;;;;;;;5018847;28;20752;-61
2024/04/01 11:45:00;;;;;;;1.10;1.10;;;;;;;;;;5037536;28;20205;-61
2024/04/01 11:47:27;;;;;;;0.83;0.83;;;;;;;;;;5041890;28;20209;-61
2024/04/01 11:49:53;;;;;;;1.00;1.00;;;;;;;;;;5030974;28;20206;-61
2024/04/01 11:52:20;;;;;;;0.90;0.90;;;;;;;;;;5031426;28;20216;-61
2024/04/01 11:54:46;;;;;;;1.10;1.10;;;;;;;;;;5031534;28;20267;-62
2024/04/01 11:57:14;;;;;;;1.00;1.00;;;;;;;;;;5030543;28;20205;-62
2024/04/01 11:59:40;;;;;;;1.00;1.00;;;;;;;;;;5029674;28;20307;-61
2024/04/01 12:02:07;;;;;;;1.03;1.03;;;;;;;;;;5028463;28;20256;-60
2024/04/01 12:04:33;;;;;;;0.90;0.90;;;;;;;;;;5036285;28;20867;-62
2024/04/01 12:07:00;;;;;;;1.10;1.10;;;;;;;;;;5033414;28;20438;-61
2024/04/01 12:09:26;;;;;;;1.00;1.00;;;;;;;;;;5030385;28;20205;-61
2024/04/01 12:11:53;;;;;;;1.20;1.10;;;;;;;;;;5036447;28;20312;-61
2024/04/01 12:14:19;;;;;;;1.00;1.00;;;;;;;;;;5035345;28;20400;-61
2024/04/01 12:16:46;;;;;;;1.80;1.40;;;;;;;;;;5027391;28;20208;-64
2024/04/01 12:19:13;;;;;;;1.20;1.20;;;;;;;;;;5034062;28;20213;-62
2024/04/01 12:21:40;;;;;;;1.10;1.10;;;;;;;;;;5043908;28;20595;-61
2024/04/01 12:24:06;;;;;;;1.20;1.20;;;;;;;;;;5039599;28;20209;-60
2024/04/01 12:26:33;;;;;;;1.00;1.00;;;;;;;;;;5041085;28;20225;-62
2024/04/01 12:28:59;;;;;;;1.10;1.10;;;;;;;;;;5035048;28;20629;-60
2024/04/01 12:31:27;;;;;;;1.07;1.00;;;;;;;;;;5032718;28;20669;-60
2024/04/01 12:33:53;;;;;;;1.00;1.00;;;;;;;;;;5028106;28;20220;-60
2024/04/01 12:36:20;;;;;;;1.17;1.00;;;;;;;;;;5027403;28;20194;-60
2024/04/01 12:38:47;;;;;;;0.90;0.90;;;;;;;;;;5026039;28;20206;-60
2024/04/01 12:41:14;;;;;;;1.10;1.10;;;;;;;;;;5044593;28;20232;-61
2024/04/01 12:43:40;;;;;;;1.13;1.13;;;;;;;;;;5040863;28;20270;-61
2024/04/01 12:46:07;;;;;;;1.10;1.10;;;;;;;;;;5045735;28;20666;-60
2024/04/01 12:48:33;;;;;;;1.03;1.03;;;;;;;;;;5033943;28;20218;-61
2024/04/01 12:51:01;;;;;;;1.00;1.00;;;;;;;;;;5036180;28;20289;-61
2024/04/01 12:53:27;;;;;;;1.20;1.20;;;;;;;;;;5034204;28;20219;-62
2024/04/01 12:55:54;;;;;;;1.10;1.10;;;;;;;;;;5044186;28;20291;-61
2024/04/01 12:58:20;;;;;;;1.03;1.03;;;;;;;;;;5041143;28;20209;-61
2024/04/01 13:00:48;;;;;;;0.97;0.97;;;;;;;;;;5034121;28;20237;-61
2024/04/01 13:03:14;;;;;;;1.00;1.00;;;;;;;;;;5048461;28;20619;-61
2024/04/01 13:05:41;;;;;;;1.00;1.00;;;;;;;;;;5032832;28;20706;-61
2024/04/01 13:08:07;;;;;;;1.03;1.03;;;;;;;;;;5032542;28;20204;-61
2024/04/01 13:10:35;;;;;;;1.17;1.10;;;;;;;;;;5032433;28;21086;-61
2024/04/01 13:13:01;;;;;;;1.00;1.00;;;;;;;;;;5037152;28;20599;-62
2024/04/01 13:15:28;;;;;;;1.00;1.00;;;;;;;;;;5044989;28;20215;-63
2024/04/01 13:17:54;;;;;;;0.97;0.97;;;;;;;;;;5030659;28;20620;-61
2024/04/01 13:20:20;;;;;;;0.90;0.90;;;;;;;;;;5042040;28;22236;-61
2024/04/01 13:22:47;;;;;;;1.10;1.10;;;;;;;;;;5048867;28;20224;-60
2024/04/01 13:25:13;;;;;;;1.10;1.10;;;;;;;;;;5042685;28;20247;-60
2024/04/01 13:27:41;;;;;;;1.03;1.03;;;;;;;;;;5052909;28;20217;-60
2024/04/01 13:30:07;;;;;;;0.90;0.90;;;;;;;;;;5035547;28;20219;-61
2024/04/01 13:32:34;;;;;;;1.10;0.90;;;;;;;;;;5044991;28;20238;-61
2024/04/01 13:35:00;;;;;;;1.33;1.00;;;;;;;;;;5033665;28;20206;-60
2024/04/01 13:37:28;;;;;;;1.10;1.00;;;;;;;;;;5027351;28;20201;-60
2024/04/01 13:39:54;;;;;;;1.00;1.00;;;;;;;;;;5032708;28;20215;-61
2024/04/01 13:42:23;;;;;;;1.00;1.00;;;;;;;;;;5036776;28;20297;-61
2024/04/01 13:44:49;;;;;;;1.33;1.00;;;;;;;;;;5039437;28;20574;-61
2024/04/01 13:47:17;;;;;;;1.00;1.00;;;;;;;;;;5041970;28;20259;-61
2024/04/01 13:49:43;;;;;;;1.10;1.10;;;;;;;;;;5046582;28;20292;-60
2024/04/01 13:52:10;;;;;;;1.00;1.00;;;;;;;;;;5046643;28;20220;-61
2024/04/01 13:54:38;;;;;;;0.90;0.90;;;;;;;;;;5034071;28;20462;-61
2024/04/01 13:57:05;;;;;;;0.97;0.97;;;;;;;;;;5032386;28;20613;-61
2024/04/01 13:59:31;;;;;;;1.00;1.00;;;;;;;;;;5028901;28;20208;-60
2024/04/01 14:01:58;;;;;;;1.03;1.00;;;;;;;;;;5033948;28;20315;-61
2024/04/01 14:04:24;;;;;;;1.00;1.00;;;;;;;;;;5033559;28;20227;-60
2024/04/01 14:06:52;;;;;;;1.10;1.10;;;;;;;;;;5032636;28;20316;-61
2024/04/01 14:09:19;;;;;;;0.90;0.90;;;;;;;;;;5032777;28;20204;-60
2024/04/01 14:11:46;;;;;;;1.00;1.00;;;;;;;;;;5033702;28;20225;-61
2024/04/01 14:14:13;;;;;;;0.90;0.90;;;;;;;;;;5041675;28;20217;-61
2024/04/01 14:16:40;;;;;;;1.10;1.10;;;;;;;;;;5033820;28;20570;-61
2024/04/01 14:19:06;;;;;;;1.20;1.20;;;;;;;;;;5032597;28;20208;-61
2024/04/01 14:21:33;;;;;;;1.10;1.10;;;;;;;;;;5031910;28;20235;-61
2024/04/01 14:24:00;;;;;;;1.00;1.00;;;;;;;;;;5032572;28;20671;-61
2024/04/01 14:26:27;;;;;;;1.20;1.20;;;;;;;;;;5033810;28;20240;-61
2024/04/01 14:28:54;;;;;;;1.20;1.20;;;;;;;;;;5033186;28;20239;-61
2024/04/01 14:31:21;;;;;;;0.90;0.90;;;;;;;;;;5032303;28;20205;-61
2024/04/01 14:33:47;;;;;;;0.90;0.90;;;;;;;;;;5033123;28;20214;-60
2024/04/01 14:36:14;;;;;;;1.10;1.10;;;;;;;;;;5024920;28;20691;-61
2024/04/01 14:38:40;;;;;;;1.00;1.00;;;;;;;;;;5033072;28;20209;-61